sensor_id;sensor_type;location;lat;lon;timestamp;P1;durP1;ratioP1;P2;durP2;ratioP2
16665;SDS011;8446;50.998;6.250;2022-12-11T00:01:29;49.40;;;14.85;;
16665;SDS011;8446;50.998;6.250;2022-12-11T00:03:56;50.20;;;15.80;;
16665;SDS011;8446;50.998;6.250;2022-12-11T00:06:23;61.03;;;16.88;;
16665;SDS011;8446;50.998;6.250;2022-12-11T00:08:50;39.90;;;13.70;;
16665;SDS011;8446;50.998;6.250;2022-12-11T00:11:18;44.90;;;13.85;;
16665;SDS011;8446;50.998;6.250;2022-12-11T00:13:47;54.10;;;16.45;;
16665;SDS011;8446;50.998;6.250;2022-12-11T00:16:14;44.50;;;15.68;;
16665;SDS011;8446;50.998;6.250;2022-12-11T00:18:41;41.03;;;14.57;;
16665;SDS011;8446;50.998;6.250;2022-12-11T00:21:09;46.40;;;16.65;;
16665;SDS011;8446;50.998;6.250;2022-12-11T00:23:38;49.53;;;16.50;;
16665;SDS011;8446;50.998;6.250;2022-12-11T00:26:05;44.58;;;16.63;;
16665;SDS011;8446;50.998;6.250;2022-12-11T00:28:33;44.63;;;15.38;;
16665;SDS011;8446;50.998;6.250;2022-12-11T00:31:03;43.17;;;17.27;;
16665;SDS011;8446;50.998;6.250;2022-12-11T00:33:30;47.13;;;15.82;;
16665;SDS011;8446;50.998;6.250;2022-12-11T00:35:58;42.83;;;15.18;;
16665;SDS011;8446;50.998;6.250;2022-12-11T00:38:25;44.22;;;15.13;;
16665;SDS011;8446;50.998;6.250;2022-12-11T00:40:56;44.83;;;16.35;;
16665;SDS011;8446;50.998;6.250;2022-12-11T00:43:23;44.70;;;13.93;;
16665;SDS011;8446;50.998;6.250;2022-12-11T00:45:50;35.97;;;14.60;;
16665;SDS011;8446;50.998;6.250;2022-12-11T00:48:19;51.50;;;14.50;;
16665;SDS011;8446;50.998;6.250;2022-12-11T00:50:46;40.55;;;14.27;;
16665;SDS011;8446;50.998;6.250;2022-12-11T00:53:13;46.22;;;15.48;;
16665;SDS011;8446;50.998;6.250;2022-12-11T00:55:40;34.95;;;14.65;;
16665;SDS011;8446;50.998;6.250;2022-12-11T00:58:08;32.38;;;12.50;;
16665;SDS011;8446;50.998;6.250;2022-12-11T01:00:35;35.38;;;13.73;;
16665;SDS011;8446;50.998;6.250;2022-12-11T01:03:03;37.83;;;13.05;;
16665;SDS011;8446;50.998;6.250;2022-12-11T01:05:32;42.10;;;14.18;;
16665;SDS011;8446;50.998;6.250;2022-12-11T01:07:59;49.83;;;15.00;;
16665;SDS011;8446;50.998;6.250;2022-12-11T01:10:26;42.70;;;14.95;;
16665;SDS011;8446;50.998;6.250;2022-12-11T01:12:55;38.95;;;11.98;;
16665;SDS011;8446;50.998;6.250;2022-12-11T01:15:26;30.25;;;11.30;;
16665;SDS011;8446;50.998;6.250;2022-12-11T01:17:53;30.38;;;11.52;;
16665;SDS011;8446;50.998;6.250;2022-12-11T01:20:21;35.75;;;13.25;;
16665;SDS011;8446;50.998;6.250;2022-12-11T01:22:52;32.13;;;11.95;;
16665;SDS011;8446;50.998;6.250;2022-12-11T01:25:19;31.25;;;10.98;;
16665;SDS011;8446;50.998;6.250;2022-12-11T01:27:48;35.80;;;12.45;;
16665;SDS011;8446;50.998;6.250;2022-12-11T01:30:15;32.60;;;12.48;;
16665;SDS011;8446;50.998;6.250;2022-12-11T01:32:42;35.92;;;14.18;;
16665;SDS011;8446;50.998;6.250;2022-12-11T01:35:10;44.28;;;14.18;;
16665;SDS011;8446;50.998;6.250;2022-12-11T01:37:37;28.88;;;11.85;;
16665;SDS011;8446;50.998;6.250;2022-12-11T01:40:06;34.45;;;11.65;;
16665;SDS011;8446;50.998;6.250;2022-12-11T01:42:34;41.45;;;13.25;;
16665;SDS011;8446;50.998;6.250;2022-12-11T01:47:43;35.65;;;11.60;;
16665;SDS011;8446;50.998;6.250;2022-12-11T01:50:10;52.78;;;13.75;;
16665;SDS011;8446;50.998;6.250;2022-12-11T01:52:37;37.95;;;13.18;;
16665;SDS011;8446;50.998;6.250;2022-12-11T01:55:07;26.75;;;11.45;;
16665;SDS011;8446;50.998;6.250;2022-12-11T01:57:35;36.17;;;13.73;;
16665;SDS011;8446;50.998;6.250;2022-12-11T02:00:02;37.75;;;12.52;;
16665;SDS011;8446;50.998;6.250;2022-12-11T02:02:30;41.78;;;12.65;;
16665;SDS011;8446;50.998;6.250;2022-12-11T02:04:57;29.55;;;10.50;;
16665;SDS011;8446;50.998;6.250;2022-12-11T02:07:25;37.92;;;12.98;;
16665;SDS011;8446;50.998;6.250;2022-12-11T02:09:52;36.30;;;12.48;;
16665;SDS011;8446;50.998;6.250;2022-12-11T02:12:23;45.03;;;14.20;;
16665;SDS011;8446;50.998;6.250;2022-12-11T02:14:52;39.08;;;13.50;;
16665;SDS011;8446;50.998;6.250;2022-12-11T02:17:25;31.13;;;13.65;;
16665;SDS011;8446;50.998;6.250;2022-12-11T02:19:57;31.48;;;13.18;;
16665;SDS011;8446;50.998;6.250;2022-12-11T02:22:26;38.58;;;11.57;;
16665;SDS011;8446;50.998;6.250;2022-12-11T02:24:57;27.52;;;11.63;;
16665;SDS011;8446;50.998;6.250;2022-12-11T02:27:32;37.33;;;11.93;;
16665;SDS011;8446;50.998;6.250;2022-12-11T02:30:04;29.60;;;12.40;;
16665;SDS011;8446;50.998;6.250;2022-12-11T02:32:33;38.17;;;12.60;;
16665;SDS011;8446;50.998;6.250;2022-12-11T02:35:03;34.90;;;10.40;;
16665;SDS011;8446;50.998;6.250;2022-12-11T02:37:31;27.20;;;11.40;;
16665;SDS011;8446;50.998;6.250;2022-12-11T02:39:59;27.50;;;9.73;;
16665;SDS011;8446;50.998;6.250;2022-12-11T02:42:28;35.42;;;11.00;;
16665;SDS011;8446;50.998;6.250;2022-12-11T02:44:57;22.50;;;9.25;;
16665;SDS011;8446;50.998;6.250;2022-12-11T02:47:26;25.98;;;10.57;;
16665;SDS011;8446;50.998;6.250;2022-12-11T02:49:56;26.63;;;10.23;;
16665;SDS011;8446;50.998;6.250;2022-12-11T02:52:24;25.73;;;9.98;;
16665;SDS011;8446;50.998;6.250;2022-12-11T02:57:57;23.77;;;10.60;;
16665;SDS011;8446;50.998;6.250;2022-12-11T03:00:27;28.42;;;10.68;;
16665;SDS011;8446;50.998;6.250;2022-12-11T03:02:55;27.35;;;8.95;;
16665;SDS011;8446;50.998;6.250;2022-12-11T03:05:23;31.88;;;11.20;;
16665;SDS011;8446;50.998;6.250;2022-12-11T03:07:51;24.90;;;10.55;;
16665;SDS011;8446;50.998;6.250;2022-12-11T03:10:18;23.05;;;8.88;;
16665;SDS011;8446;50.998;6.250;2022-12-11T03:12:46;26.58;;;9.05;;
16665;SDS011;8446;50.998;6.250;2022-12-11T03:15:16;22.05;;;10.20;;
16665;SDS011;8446;50.998;6.250;2022-12-11T03:17:48;35.85;;;11.48;;
16665;SDS011;8446;50.998;6.250;2022-12-11T03:20:22;31.45;;;11.90;;
16665;SDS011;8446;50.998;6.250;2022-12-11T03:22:55;25.30;;;10.05;;
16665;SDS011;8446;50.998;6.250;2022-12-11T03:25:24;25.13;;;10.30;;
16665;SDS011;8446;50.998;6.250;2022-12-11T03:27:55;28.02;;;10.85;;
16665;SDS011;8446;50.998;6.250;2022-12-11T03:30:23;34.95;;;11.00;;
16665;SDS011;8446;50.998;6.250;2022-12-11T03:32:52;27.67;;;9.10;;
16665;SDS011;8446;50.998;6.250;2022-12-11T03:35:23;26.90;;;11.35;;
16665;SDS011;8446;50.998;6.250;2022-12-11T03:37:52;25.08;;;9.93;;
16665;SDS011;8446;50.998;6.250;2022-12-11T03:40:21;23.65;;;9.60;;
16665;SDS011;8446;50.998;6.250;2022-12-11T03:42:50;24.15;;;10.70;;
16665;SDS011;8446;50.998;6.250;2022-12-11T03:45:19;28.63;;;10.80;;
16665;SDS011;8446;50.998;6.250;2022-12-11T03:47:47;26.70;;;11.55;;
16665;SDS011;8446;50.998;6.250;2022-12-11T03:50:15;28.15;;;10.30;;
16665;SDS011;8446;50.998;6.250;2022-12-11T03:52:45;26.60;;;10.68;;
16665;SDS011;8446;50.998;6.250;2022-12-11T03:55:14;29.30;;;11.65;;
16665;SDS011;8446;50.998;6.250;2022-12-11T03:57:42;28.73;;;12.07;;
16665;SDS011;8446;50.998;6.250;2022-12-11T04:00:10;27.98;;;10.88;;
16665;SDS011;8446;50.998;6.250;2022-12-11T04:02:38;28.98;;;11.38;;
16665;SDS011;8446;50.998;6.250;2022-12-11T04:05:06;30.85;;;11.23;;
16665;SDS011;8446;50.998;6.250;2022-12-11T04:07:33;22.35;;;9.27;;
16665;SDS011;8446;50.998;6.250;2022-12-11T04:10:02;33.30;;;10.55;;
16665;SDS011;8446;50.998;6.250;2022-12-11T04:12:29;26.45;;;10.25;;
16665;SDS011;8446;50.998;6.250;2022-12-11T04:14:57;27.65;;;10.23;;
16665;SDS011;8446;50.998;6.250;2022-12-11T04:17:26;22.33;;;9.25;;
16665;SDS011;8446;50.998;6.250;2022-12-11T04:20:11;29.38;;;10.30;;
16665;SDS011;8446;50.998;6.250;2022-12-11T04:22:55;23.67;;;9.07;;
16665;SDS011;8446;50.998;6.250;2022-12-11T04:25:41;29.60;;;11.32;;
16665;SDS011;8446;50.998;6.250;2022-12-11T04:28:08;25.95;;;9.30;;
16665;SDS011;8446;50.998;6.250;2022-12-11T04:30:35;19.27;;;10.20;;
16665;SDS011;8446;50.998;6.250;2022-12-11T04:33:02;19.30;;;8.77;;
16665;SDS011;8446;50.998;6.250;2022-12-11T04:35:30;25.48;;;10.20;;
16665;SDS011;8446;50.998;6.250;2022-12-11T04:37:57;26.60;;;8.85;;
16665;SDS011;8446;50.998;6.250;2022-12-11T04:40:25;21.20;;;7.90;;
16665;SDS011;8446;50.998;6.250;2022-12-11T04:42:54;23.52;;;8.60;;
16665;SDS011;8446;50.998;6.250;2022-12-11T04:45:21;18.73;;;8.82;;
16665;SDS011;8446;50.998;6.250;2022-12-11T04:47:48;21.42;;;9.05;;
16665;SDS011;8446;50.998;6.250;2022-12-11T04:50:15;22.65;;;8.70;;
16665;SDS011;8446;50.998;6.250;2022-12-11T04:52:42;19.33;;;8.48;;
16665;SDS011;8446;50.998;6.250;2022-12-11T04:55:10;16.70;;;7.43;;
16665;SDS011;8446;50.998;6.250;2022-12-11T04:57:37;21.42;;;7.88;;
16665;SDS011;8446;50.998;6.250;2022-12-11T05:00:06;22.88;;;9.32;;
16665;SDS011;8446;50.998;6.250;2022-12-11T05:02:34;17.23;;;7.88;;
16665;SDS011;8446;50.998;6.250;2022-12-11T05:05:02;17.15;;;7.63;;
16665;SDS011;8446;50.998;6.250;2022-12-11T05:07:29;19.25;;;7.88;;
16665;SDS011;8446;50.998;6.250;2022-12-11T05:09:57;16.10;;;7.25;;
16665;SDS011;8446;50.998;6.250;2022-12-11T05:12:24;16.52;;;7.95;;
16665;SDS011;8446;50.998;6.250;2022-12-11T05:14:51;12.32;;;7.20;;
16665;SDS011;8446;50.998;6.250;2022-12-11T05:17:19;20.98;;;9.68;;
16665;SDS011;8446;50.998;6.250;2022-12-11T05:19:47;20.00;;;7.60;;
16665;SDS011;8446;50.998;6.250;2022-12-11T05:22:14;21.05;;;8.38;;
16665;SDS011;8446;50.998;6.250;2022-12-11T05:24:41;15.45;;;7.82;;
16665;SDS011;8446;50.998;6.250;2022-12-11T05:27:09;22.48;;;10.02;;
16665;SDS011;8446;50.998;6.250;2022-12-11T05:29:36;15.85;;;7.40;;
16665;SDS011;8446;50.998;6.250;2022-12-11T05:32:03;21.27;;;8.40;;
16665;SDS011;8446;50.998;6.250;2022-12-11T05:34:32;22.63;;;8.05;;
16665;SDS011;8446;50.998;6.250;2022-12-11T05:36:59;19.42;;;8.77;;
16665;SDS011;8446;50.998;6.250;2022-12-11T05:39:27;19.70;;;7.15;;
16665;SDS011;8446;50.998;6.250;2022-12-11T05:41:54;15.70;;;7.50;;
16665;SDS011;8446;50.998;6.250;2022-12-11T05:44:21;18.27;;;8.48;;
16665;SDS011;8446;50.998;6.250;2022-12-11T05:46:48;19.50;;;8.18;;
16665;SDS011;8446;50.998;6.250;2022-12-11T05:49:15;16.50;;;8.70;;
16665;SDS011;8446;50.998;6.250;2022-12-11T05:51:44;15.38;;;6.63;;
16665;SDS011;8446;50.998;6.250;2022-12-11T05:54:11;18.42;;;8.15;;
16665;SDS011;8446;50.998;6.250;2022-12-11T05:56:38;19.33;;;8.65;;
16665;SDS011;8446;50.998;6.250;2022-12-11T05:59:06;9.80;;;6.40;;
16665;SDS011;8446;50.998;6.250;2022-12-11T06:01:34;16.95;;;6.18;;
16665;SDS011;8446;50.998;6.250;2022-12-11T06:04:01;14.65;;;7.65;;
16665;SDS011;8446;50.998;6.250;2022-12-11T06:06:29;16.33;;;7.93;;
16665;SDS011;8446;50.998;6.250;2022-12-11T06:08:58;13.38;;;6.70;;
16665;SDS011;8446;50.998;6.250;2022-12-11T06:11:26;13.60;;;7.15;;
16665;SDS011;8446;50.998;6.250;2022-12-11T06:13:54;16.50;;;6.25;;
16665;SDS011;8446;50.998;6.250;2022-12-11T06:16:21;15.40;;;7.63;;
16665;SDS011;8446;50.998;6.250;2022-12-11T06:18:49;13.07;;;6.40;;
16665;SDS011;8446;50.998;6.250;2022-12-11T06:21:16;13.55;;;5.30;;
16665;SDS011;8446;50.998;6.250;2022-12-11T06:23:44;11.93;;;6.57;;
16665;SDS011;8446;50.998;6.250;2022-12-11T06:26:13;12.50;;;6.18;;
16665;SDS011;8446;50.998;6.250;2022-12-11T06:28:41;10.80;;;5.70;;
16665;SDS011;8446;50.998;6.250;2022-12-11T06:31:08;11.18;;;6.38;;
16665;SDS011;8446;50.998;6.250;2022-12-11T06:33:35;12.57;;;5.78;;
16665;SDS011;8446;50.998;6.250;2022-12-11T06:36:03;10.55;;;5.70;;
16665;SDS011;8446;50.998;6.250;2022-12-11T06:38:30;11.52;;;5.90;;
16665;SDS011;8446;50.998;6.250;2022-12-11T06:40:58;12.40;;;6.00;;
16665;SDS011;8446;50.998;6.250;2022-12-11T06:43:26;12.00;;;5.75;;
16665;SDS011;8446;50.998;6.250;2022-12-11T06:45:53;15.63;;;5.68;;
16665;SDS011;8446;50.998;6.250;2022-12-11T06:48:21;12.57;;;6.35;;
16665;SDS011;8446;50.998;6.250;2022-12-11T06:50:48;11.32;;;5.70;;
16665;SDS011;8446;50.998;6.250;2022-12-11T06:53:16;8.25;;;5.50;;
16665;SDS011;8446;50.998;6.250;2022-12-11T06:55:43;14.25;;;6.88;;
16665;SDS011;8446;50.998;6.250;2022-12-11T06:58:10;10.75;;;5.95;;
16665;SDS011;8446;50.998;6.250;2022-12-11T07:00:39;9.85;;;5.68;;
16665;SDS011;8446;50.998;6.250;2022-12-11T07:03:06;12.93;;;5.88;;
16665;SDS011;8446;50.998;6.250;2022-12-11T07:05:33;9.75;;;5.70;;
16665;SDS011;8446;50.998;6.250;2022-12-11T07:08:00;11.00;;;5.90;;
16665;SDS011;8446;50.998;6.250;2022-12-11T07:10:27;14.00;;;6.03;;
16665;SDS011;8446;50.998;6.250;2022-12-11T07:12:54;8.77;;;5.72;;
16665;SDS011;8446;50.998;6.250;2022-12-11T07:15:22;13.68;;;6.95;;
16665;SDS011;8446;50.998;6.250;2022-12-11T07:17:50;14.35;;;7.28;;
16665;SDS011;8446;50.998;6.250;2022-12-11T07:20:17;11.35;;;6.80;;
16665;SDS011;8446;50.998;6.250;2022-12-11T07:22:45;10.32;;;6.55;;
16665;SDS011;8446;50.998;6.250;2022-12-11T07:25:12;10.45;;;5.60;;
16665;SDS011;8446;50.998;6.250;2022-12-11T07:27:39;14.02;;;7.32;;
16665;SDS011;8446;50.998;6.250;2022-12-11T07:30:07;17.90;;;8.55;;
16665;SDS011;8446;50.998;6.250;2022-12-11T07:32:34;14.13;;;7.35;;
16665;SDS011;8446;50.998;6.250;2022-12-11T07:35:03;14.68;;;8.23;;
16665;SDS011;8446;50.998;6.250;2022-12-11T07:37:30;12.05;;;5.90;;
16665;SDS011;8446;50.998;6.250;2022-12-11T07:39:58;11.00;;;6.30;;
16665;SDS011;8446;50.998;6.250;2022-12-11T07:42:25;12.98;;;7.25;;
16665;SDS011;8446;50.998;6.250;2022-12-11T07:44:52;19.50;;;6.88;;
16665;SDS011;8446;50.998;6.250;2022-12-11T07:47:19;16.15;;;7.68;;
16665;SDS011;8446;50.998;6.250;2022-12-11T07:49:46;15.90;;;7.40;;
16665;SDS011;8446;50.998;6.250;2022-12-11T07:52:15;15.27;;;7.75;;
16665;SDS011;8446;50.998;6.250;2022-12-11T07:54:42;14.05;;;7.65;;
16665;SDS011;8446;50.998;6.250;2022-12-11T07:57:09;13.30;;;6.95;;
16665;SDS011;8446;50.998;6.250;2022-12-11T07:59:36;26.25;;;9.43;;
16665;SDS011;8446;50.998;6.250;2022-12-11T08:02:04;14.82;;;8.48;;
16665;SDS011;8446;50.998;6.250;2022-12-11T08:04:31;13.77;;;7.72;;
16665;SDS011;8446;50.998;6.250;2022-12-11T08:06:58;16.75;;;7.75;;
16665;SDS011;8446;50.998;6.250;2022-12-11T08:09:27;13.25;;;6.63;;
16665;SDS011;8446;50.998;6.250;2022-12-11T08:11:54;15.25;;;7.75;;
16665;SDS011;8446;50.998;6.250;2022-12-11T08:14:21;13.45;;;7.25;;
16665;SDS011;8446;50.998;6.250;2022-12-11T08:16:49;16.17;;;8.68;;
16665;SDS011;8446;50.998;6.250;2022-12-11T08:19:16;13.93;;;7.47;;
16665;SDS011;8446;50.998;6.250;2022-12-11T08:21:43;15.40;;;8.02;;
16665;SDS011;8446;50.998;6.250;2022-12-11T08:24:10;17.80;;;7.85;;
16665;SDS011;8446;50.998;6.250;2022-12-11T08:26:41;13.18;;;6.90;;
16665;SDS011;8446;50.998;6.250;2022-12-11T08:29:08;14.90;;;7.82;;
16665;SDS011;8446;50.998;6.250;2022-12-11T08:31:36;15.98;;;8.50;;
16665;SDS011;8446;50.998;6.250;2022-12-11T08:34:04;15.68;;;7.93;;
16665;SDS011;8446;50.998;6.250;2022-12-11T08:36:31;15.45;;;8.43;;
16665;SDS011;8446;50.998;6.250;2022-12-11T08:38:59;16.02;;;8.45;;
16665;SDS011;8446;50.998;6.250;2022-12-11T08:41:27;17.60;;;8.02;;
16665;SDS011;8446;50.998;6.250;2022-12-11T08:43:56;17.55;;;8.68;;
16665;SDS011;8446;50.998;6.250;2022-12-11T08:46:25;15.40;;;8.73;;
16665;SDS011;8446;50.998;6.250;2022-12-11T08:48:52;18.83;;;8.35;;
16665;SDS011;8446;50.998;6.250;2022-12-11T08:51:20;17.67;;;7.57;;
16665;SDS011;8446;50.998;6.250;2022-12-11T08:53:48;22.35;;;9.40;;
16665;SDS011;8446;50.998;6.250;2022-12-11T08:56:16;12.55;;;7.10;;
16665;SDS011;8446;50.998;6.250;2022-12-11T08:58:44;14.35;;;7.28;;
16665;SDS011;8446;50.998;6.250;2022-12-11T09:01:13;19.30;;;7.80;;
16665;SDS011;8446;50.998;6.250;2022-12-11T09:03:42;25.83;;;9.00;;
16665;SDS011;8446;50.998;6.250;2022-12-11T09:06:10;18.33;;;8.43;;
16665;SDS011;8446;50.998;6.250;2022-12-11T09:08:37;16.80;;;9.13;;
16665;SDS011;8446;50.998;6.250;2022-12-11T09:11:05;15.88;;;8.48;;
16665;SDS011;8446;50.998;6.250;2022-12-11T09:13:32;14.55;;;8.00;;
16665;SDS011;8446;50.998;6.250;2022-12-11T09:16:00;20.88;;;7.88;;
16665;SDS011;8446;50.998;6.250;2022-12-11T09:18:30;17.17;;;8.95;;
16665;SDS011;8446;50.998;6.250;2022-12-11T09:20:58;13.15;;;7.78;;
16665;SDS011;8446;50.998;6.250;2022-12-11T09:23:25;16.63;;;8.20;;
16665;SDS011;8446;50.998;6.250;2022-12-11T09:25:52;16.38;;;8.15;;
16665;SDS011;8446;50.998;6.250;2022-12-11T09:28:19;16.52;;;7.60;;
16665;SDS011;8446;50.998;6.250;2022-12-11T09:30:47;13.55;;;7.60;;
16665;SDS011;8446;50.998;6.250;2022-12-11T09:33:14;14.48;;;7.90;;
16665;SDS011;8446;50.998;6.250;2022-12-11T09:35:42;15.20;;;7.30;;
16665;SDS011;8446;50.998;6.250;2022-12-11T09:38:10;12.05;;;7.05;;
16665;SDS011;8446;50.998;6.250;2022-12-11T09:40:40;16.42;;;7.72;;
16665;SDS011;8446;50.998;6.250;2022-12-11T09:43:11;13.13;;;6.68;;
16665;SDS011;8446;50.998;6.250;2022-12-11T09:45:41;11.73;;;7.00;;
16665;SDS011;8446;50.998;6.250;2022-12-11T09:48:08;17.65;;;8.27;;
16665;SDS011;8446;50.998;6.250;2022-12-11T09:50:35;12.73;;;7.10;;
16665;SDS011;8446;50.998;6.250;2022-12-11T09:53:06;16.40;;;8.20;;
16665;SDS011;8446;50.998;6.250;2022-12-11T09:55:39;17.20;;;7.10;;
16665;SDS011;8446;50.998;6.250;2022-12-11T09:58:12;11.20;;;6.55;;
16665;SDS011;8446;50.998;6.250;2022-12-11T10:00:43;14.73;;;8.15;;
16665;SDS011;8446;50.998;6.250;2022-12-11T10:05:54;17.00;;;9.05;;
16665;SDS011;8446;50.998;6.250;2022-12-11T10:08:27;20.95;;;8.15;;
16665;SDS011;8446;50.998;6.250;2022-12-11T10:10:57;12.73;;;6.75;;
16665;SDS011;8446;50.998;6.250;2022-12-11T10:13:27;14.60;;;7.13;;
16665;SDS011;8446;50.998;6.250;2022-12-11T10:15:56;16.38;;;6.05;;
16665;SDS011;8446;50.998;6.250;2022-12-11T10:18:27;17.75;;;8.20;;
16665;SDS011;8446;50.998;6.250;2022-12-11T10:20:55;16.10;;;7.72;;
16665;SDS011;8446;50.998;6.250;2022-12-11T10:23:23;14.82;;;6.10;;
16665;SDS011;8446;50.998;6.250;2022-12-11T10:25:55;11.43;;;5.70;;
16665;SDS011;8446;50.998;6.250;2022-12-11T10:28:26;14.88;;;7.00;;
16665;SDS011;8446;50.998;6.250;2022-12-11T10:30:55;10.98;;;6.95;;
16665;SDS011;8446;50.998;6.250;2022-12-11T10:33:28;10.07;;;6.07;;
16665;SDS011;8446;50.998;6.250;2022-12-11T10:35:58;14.52;;;6.80;;
16665;SDS011;8446;50.998;6.250;2022-12-11T10:38:26;12.73;;;5.70;;
16665;SDS011;8446;50.998;6.250;2022-12-11T10:40:56;10.45;;;6.07;;
16665;SDS011;8446;50.998;6.250;2022-12-11T10:43:31;11.00;;;5.60;;
16665;SDS011;8446;50.998;6.250;2022-12-11T10:45:59;8.63;;;5.57;;
16665;SDS011;8446;50.998;6.250;2022-12-11T10:48:26;10.05;;;5.05;;
16665;SDS011;8446;50.998;6.250;2022-12-11T10:50:55;9.25;;;5.53;;
16665;SDS011;8446;50.998;6.250;2022-12-11T10:53:22;10.20;;;5.53;;
16665;SDS011;8446;50.998;6.250;2022-12-11T10:55:50;11.20;;;6.72;;
16665;SDS011;8446;50.998;6.250;2022-12-11T10:58:19;15.05;;;6.38;;
16665;SDS011;8446;50.998;6.250;2022-12-11T11:00:47;13.15;;;7.90;;
16665;SDS011;8446;50.998;6.250;2022-12-11T11:03:19;11.13;;;6.40;;
16665;SDS011;8446;50.998;6.250;2022-12-11T11:05:48;10.20;;;6.28;;
16665;SDS011;8446;50.998;6.250;2022-12-11T11:08:16;11.93;;;6.35;;
16665;SDS011;8446;50.998;6.250;2022-12-11T11:10:51;9.63;;;5.32;;
16665;SDS011;8446;50.998;6.250;2022-12-11T11:13:21;9.32;;;5.68;;
16665;SDS011;8446;50.998;6.250;2022-12-11T11:15:48;9.90;;;5.90;;
16665;SDS011;8446;50.998;6.250;2022-12-11T11:18:18;12.88;;;6.45;;
16665;SDS011;8446;50.998;6.250;2022-12-11T11:20:49;10.85;;;6.57;;
16665;SDS011;8446;50.998;6.250;2022-12-11T11:23:16;9.60;;;5.10;;
16665;SDS011;8446;50.998;6.250;2022-12-11T11:25:49;10.88;;;5.78;;
16665;SDS011;8446;50.998;6.250;2022-12-11T11:28:17;8.98;;;5.28;;
16665;SDS011;8446;50.998;6.250;2022-12-11T11:30:54;8.63;;;5.40;;
16665;SDS011;8446;50.998;6.250;2022-12-11T11:33:22;10.07;;;5.80;;
16665;SDS011;8446;50.998;6.250;2022-12-11T11:35:50;10.88;;;6.50;;
16665;SDS011;8446;50.998;6.250;2022-12-11T11:38:18;12.85;;;6.60;;
16665;SDS011;8446;50.998;6.250;2022-12-11T11:40:47;13.23;;;6.80;;
16665;SDS011;8446;50.998;6.250;2022-12-11T11:43:19;11.32;;;6.38;;
16665;SDS011;8446;50.998;6.250;2022-12-11T11:45:50;12.02;;;6.78;;
16665;SDS011;8446;50.998;6.250;2022-12-11T11:48:23;12.00;;;7.00;;
16665;SDS011;8446;50.998;6.250;2022-12-11T11:50:53;14.75;;;6.78;;
16665;SDS011;8446;50.998;6.250;2022-12-11T11:53:21;10.98;;;5.38;;
16665;SDS011;8446;50.998;6.250;2022-12-11T11:55:51;11.63;;;6.53;;
16665;SDS011;8446;50.998;6.250;2022-12-11T11:58:21;14.32;;;5.97;;
16665;SDS011;8446;50.998;6.250;2022-12-11T12:00:52;11.15;;;6.18;;
16665;SDS011;8446;50.998;6.250;2022-12-11T12:03:20;10.57;;;6.10;;
16665;SDS011;8446;50.998;6.250;2022-12-11T12:05:50;10.63;;;5.68;;
16665;SDS011;8446;50.998;6.250;2022-12-11T12:08:22;11.90;;;6.45;;
16665;SDS011;8446;50.998;6.250;2022-12-11T12:10:55;12.50;;;6.00;;
16665;SDS011;8446;50.998;6.250;2022-12-11T12:13:24;9.23;;;6.50;;
16665;SDS011;8446;50.998;6.250;2022-12-11T12:15:55;14.35;;;7.07;;
16665;SDS011;8446;50.998;6.250;2022-12-11T12:18:23;11.30;;;6.88;;
16665;SDS011;8446;50.998;6.250;2022-12-11T12:20:58;10.50;;;5.55;;
16665;SDS011;8446;50.998;6.250;2022-12-11T12:23:42;11.88;;;6.07;;
16665;SDS011;8446;50.998;6.250;2022-12-11T12:26:13;9.40;;;6.00;;
16665;SDS011;8446;50.998;6.250;2022-12-11T12:28:43;9.73;;;5.82;;
16665;SDS011;8446;50.998;6.250;2022-12-11T12:31:19;13.77;;;6.65;;
16665;SDS011;8446;50.998;6.250;2022-12-11T12:33:51;9.70;;;6.35;;
16665;SDS011;8446;50.998;6.250;2022-12-11T12:36:22;11.68;;;6.50;;
16665;SDS011;8446;50.998;6.250;2022-12-11T12:38:52;12.15;;;7.03;;
16665;SDS011;8446;50.998;6.250;2022-12-11T12:41:21;11.00;;;5.95;;
16665;SDS011;8446;50.998;6.250;2022-12-11T12:43:57;11.73;;;6.75;;
16665;SDS011;8446;50.998;6.250;2022-12-11T12:46:28;13.27;;;7.60;;
16665;SDS011;8446;50.998;6.250;2022-12-11T12:48:58;14.50;;;7.45;;
16665;SDS011;8446;50.998;6.250;2022-12-11T12:51:28;15.85;;;7.85;;
16665;SDS011;8446;50.998;6.250;2022-12-11T12:53:57;12.00;;;6.40;;
16665;SDS011;8446;50.998;6.250;2022-12-11T12:56:25;13.27;;;7.22;;
16665;SDS011;8446;50.998;6.250;2022-12-11T12:58:53;8.52;;;5.80;;
16665;SDS011;8446;50.998;6.250;2022-12-11T13:01:20;15.77;;;6.63;;
16665;SDS011;8446;50.998;6.250;2022-12-11T13:03:49;13.70;;;6.43;;
16665;SDS011;8446;50.998;6.250;2022-12-11T13:06:26;14.65;;;6.57;;
16665;SDS011;8446;50.998;6.250;2022-12-11T13:08:55;15.75;;;7.00;;
16665;SDS011;8446;50.998;6.250;2022-12-11T13:11:29;11.32;;;6.95;;
16665;SDS011;8446;50.998;6.250;2022-12-11T13:14:00;12.13;;;6.00;;
16665;SDS011;8446;50.998;6.250;2022-12-11T13:16:34;17.20;;;8.02;;
16665;SDS011;8446;50.998;6.250;2022-12-11T13:19:01;14.75;;;6.47;;
16665;SDS011;8446;50.998;6.250;2022-12-11T13:21:30;14.20;;;7.43;;
16665;SDS011;8446;50.998;6.250;2022-12-11T13:24:15;14.73;;;7.65;;
16665;SDS011;8446;50.998;6.250;2022-12-11T13:26:43;14.60;;;7.15;;
16665;SDS011;8446;50.998;6.250;2022-12-11T13:29:29;11.73;;;7.50;;
16665;SDS011;8446;50.998;6.250;2022-12-11T13:31:57;13.18;;;7.50;;
16665;SDS011;8446;50.998;6.250;2022-12-11T13:34:26;15.60;;;6.80;;
16665;SDS011;8446;50.998;6.250;2022-12-11T13:36:53;16.65;;;7.40;;
16665;SDS011;8446;50.998;6.250;2022-12-11T13:39:23;13.57;;;6.70;;
16665;SDS011;8446;50.998;6.250;2022-12-11T13:41:52;12.80;;;6.65;;
16665;SDS011;8446;50.998;6.250;2022-12-11T13:44:22;13.77;;;7.10;;
16665;SDS011;8446;50.998;6.250;2022-12-11T13:46:50;12.88;;;7.10;;
16665;SDS011;8446;50.998;6.250;2022-12-11T13:49:20;12.05;;;6.63;;
16665;SDS011;8446;50.998;6.250;2022-12-11T13:51:52;11.82;;;7.00;;
16665;SDS011;8446;50.998;6.250;2022-12-11T13:54:20;11.73;;;7.50;;
16665;SDS011;8446;50.998;6.250;2022-12-11T13:56:59;11.93;;;7.03;;
16665;SDS011;8446;50.998;6.250;2022-12-11T13:59:28;13.57;;;7.38;;
16665;SDS011;8446;50.998;6.250;2022-12-11T14:01:56;12.77;;;7.10;;
16665;SDS011;8446;50.998;6.250;2022-12-11T14:04:24;15.55;;;6.93;;
16665;SDS011;8446;50.998;6.250;2022-12-11T14:06:52;26.23;;;7.90;;
16665;SDS011;8446;50.998;6.250;2022-12-11T14:09:21;11.55;;;6.40;;
16665;SDS011;8446;50.998;6.250;2022-12-11T14:11:50;16.10;;;6.70;;
16665;SDS011;8446;50.998;6.250;2022-12-11T14:14:19;13.45;;;6.97;;
16665;SDS011;8446;50.998;6.250;2022-12-11T14:16:48;11.50;;;7.07;;
16665;SDS011;8446;50.998;6.250;2022-12-11T14:19:15;12.15;;;6.90;;
16665;SDS011;8446;50.998;6.250;2022-12-11T14:21:53;14.38;;;7.35;;
16665;SDS011;8446;50.998;6.250;2022-12-11T14:24:20;13.15;;;7.57;;
16665;SDS011;8446;50.998;6.250;2022-12-11T14:26:49;11.70;;;6.50;;
16665;SDS011;8446;50.998;6.250;2022-12-11T14:29:23;12.75;;;6.32;;
16665;SDS011;8446;50.998;6.250;2022-12-11T14:31:51;11.77;;;7.00;;
16665;SDS011;8446;50.998;6.250;2022-12-11T14:34:20;11.57;;;6.80;;
16665;SDS011;8446;50.998;6.250;2022-12-11T14:36:48;14.95;;;7.55;;
16665;SDS011;8446;50.998;6.250;2022-12-11T14:39:16;16.25;;;7.32;;
16665;SDS011;8446;50.998;6.250;2022-12-11T14:41:46;14.18;;;7.22;;
16665;SDS011;8446;50.998;6.250;2022-12-11T14:44:14;15.38;;;8.02;;
16665;SDS011;8446;50.998;6.250;2022-12-11T14:46:44;15.73;;;8.00;;
16665;SDS011;8446;50.998;6.250;2022-12-11T14:49:15;18.88;;;9.30;;
16665;SDS011;8446;50.998;6.250;2022-12-11T14:51:43;16.65;;;7.40;;
16665;SDS011;8446;50.998;6.250;2022-12-11T14:54:13;17.10;;;8.65;;
16665;SDS011;8446;50.998;6.250;2022-12-11T14:56:43;15.95;;;7.93;;
16665;SDS011;8446;50.998;6.250;2022-12-11T14:59:14;17.13;;;8.13;;
16665;SDS011;8446;50.998;6.250;2022-12-11T15:01:44;14.90;;;8.25;;
16665;SDS011;8446;50.998;6.250;2022-12-11T15:04:19;16.27;;;8.00;;